createdAt,value
2022-12-04T00:00:18.004Z,26.40
2022-12-04T00:05:17.959Z,28.20
2022-12-04T00:10:17.915Z,25.20
2022-12-04T00:15:26.439Z,26.10
2022-12-04T00:20:18.826Z,22.90
2022-12-04T00:25:17.749Z,24.10
2022-12-04T05:00:29.351Z,24.20
2022-12-04T05:05:29.381Z,27.50
2022-12-04T05:10:29.219Z,26.70
2022-12-04T05:15:36.416Z,25.90
2022-12-04T05:20:29.117Z,22.20
2022-12-04T05:25:29.043Z,20.70
2022-12-04T05:30:29.015Z,18.30
2022-12-04T05:35:28.977Z,21.50
2022-12-04T05:40:28.900Z,17.70
2022-12-04T05:45:28.843Z,19.00
2022-12-04T05:50:28.798Z,18.30
2022-12-04T05:55:28.760Z,15.40
2022-12-04T06:00:28.691Z,11.60
2022-12-04T06:05:28.662Z,7.40
2022-12-04T06:10:28.590Z,7.80
2022-12-04T06:15:28.552Z,9.70
2022-12-04T06:20:28.578Z,9.50
2022-12-04T06:25:28.428Z,9.30
2022-12-04T06:30:28.396Z,9.10
2022-12-04T06:35:28.361Z,11.00
2022-12-04T06:40:28.277Z,10.60
2022-12-04T06:45:28.259Z,9.30
2022-12-04T06:50:28.183Z,10.20
2022-12-04T06:55:28.173Z,10.50
2022-12-04T07:00:28.071Z,12.30
2022-12-04T07:05:28.018Z,10.00
2022-12-04T07:10:27.954Z,9.80
2022-12-04T07:15:27.915Z,11.00
2022-12-04T07:20:27.842Z,10.00
2022-12-04T07:25:27.817Z,9.90
2022-12-04T07:30:27.775Z,10.50
2022-12-04T07:35:27.802Z,10.10
2022-12-04T07:40:27.638Z,11.20
2022-12-04T07:45:27.829Z,10.30
2022-12-04T07:50:27.533Z,15.10
2022-12-04T07:55:27.499Z,10.90
2022-12-04T08:00:27.428Z,10.00
2022-12-04T08:05:27.377Z,10.40
2022-12-04T08:10:27.327Z,10.60
2022-12-04T08:15:27.291Z,10.20
2022-12-04T08:20:27.273Z,11.40
2022-12-04T08:25:27.171Z,11.00
2022-12-04T08:30:27.111Z,11.00
2022-12-04T08:35:27.084Z,10.30
2022-12-04T08:40:27.008Z,10.10
2022-12-04T08:45:26.954Z,13.80
2022-12-04T08:50:26.901Z,11.80
2022-12-04T08:55:26.870Z,11.20
2022-12-04T09:00:26.798Z,11.70
2022-12-04T09:05:26.778Z,12.30
2022-12-04T09:10:26.737Z,14.60
2022-12-04T09:15:26.721Z,11.40
2022-12-04T09:20:26.585Z,11.70
2022-12-04T09:25:26.560Z,11.40
2022-12-04T09:30:26.529Z,11.90
2022-12-04T09:35:26.455Z,13.00
2022-12-04T09:40:30.652Z,11.90
2022-12-04T09:45:27.328Z,13.00
2022-12-04T09:50:26.277Z,11.90
2022-12-04T09:55:26.255Z,11.00
2022-12-04T10:00:26.176Z,11.40
2022-12-04T10:05:26.120Z,12.10
2022-12-04T10:10:26.065Z,12.00
2022-12-04T10:15:26.039Z,13.30
2022-12-04T10:20:25.962Z,13.80
2022-12-04T10:25:25.912Z,12.90
2022-12-04T10:30:25.859Z,11.60
2022-12-04T10:35:25.832Z,13.40
2022-12-04T10:40:25.758Z,10.50
2022-12-04T10:45:25.698Z,11.60
2022-12-04T10:50:25.650Z,12.10
2022-12-04T10:55:25.650Z,11.70
2022-12-04T11:00:25.546Z,11.70
2022-12-04T11:05:25.491Z,12.50
2022-12-04T11:10:25.434Z,11.60
2022-12-04T11:15:32.455Z,13.00
2022-12-04T11:20:25.322Z,12.20
2022-12-04T11:25:25.290Z,11.60
2022-12-04T11:30:25.251Z,10.80
2022-12-04T11:35:25.200Z,11.50
2022-12-04T11:40:25.121Z,11.90
2022-12-04T11:45:25.072Z,12.00
2022-12-04T11:50:25.026Z,10.40
2022-12-04T11:55:28.913Z,10.80
2022-12-04T12:00:24.915Z,12.20
2022-12-04T12:05:24.861Z,12.00
2022-12-04T12:10:24.806Z,13.50
2022-12-04T12:15:24.785Z,13.10
2022-12-04T12:20:24.699Z,14.70
2022-12-04T12:25:24.652Z,12.20
2022-12-04T12:30:24.612Z,14.00
2022-12-04T12:35:24.573Z,12.60
2022-12-04T12:40:24.498Z,14.60
2022-12-04T12:45:24.443Z,12.10
2022-12-04T12:50:24.386Z,14.40
2022-12-04T12:55:24.352Z,14.00
2022-12-04T13:00:24.296Z,12.80
2022-12-04T13:05:24.221Z,13.50
2022-12-04T13:10:24.176Z,12.60
2022-12-04T13:15:24.141Z,15.90
2022-12-04T13:20:24.070Z,15.10
2022-12-04T13:25:24.042Z,14.50
2022-12-04T13:30:24.000Z,16.00
2022-12-04T13:35:23.942Z,13.50
2022-12-04T13:40:23.861Z,16.60
2022-12-04T13:45:23.814Z,13.80
2022-12-04T13:50:23.757Z,13.70
2022-12-04T13:55:23.732Z,17.60
2022-12-04T14:00:23.659Z,14.40
2022-12-04T14:05:23.594Z,17.20
2022-12-04T14:10:23.547Z,14.60
2022-12-04T14:15:23.514Z,16.70
2022-12-04T14:20:23.445Z,19.70
2022-12-04T14:25:23.388Z,20.70
2022-12-04T14:30:23.352Z,18.00
2022-12-04T14:35:23.310Z,15.90
2022-12-04T14:40:23.231Z,17.80
2022-12-04T14:45:23.197Z,16.30
2022-12-04T14:50:23.120Z,18.70
2022-12-04T14:55:23.094Z,18.80
2022-12-04T15:00:23.020Z,18.50
2022-12-04T15:05:22.966Z,17.60
2022-12-04T15:10:22.913Z,20.60
2022-12-04T15:15:22.886Z,21.00
2022-12-04T15:20:22.807Z,28.40
2022-12-04T15:25:22.757Z,22.10
2022-12-04T15:30:22.857Z,20.00
2022-12-04T15:35:22.671Z,22.50
2022-12-04T15:40:22.633Z,21.20
2022-12-04T15:45:22.543Z,22.70
2022-12-04T15:50:22.497Z,22.80
2022-12-04T15:55:22.470Z,23.70
2022-12-04T16:00:22.472Z,20.80
2022-12-04T16:05:22.341Z,23.20
2022-12-04T16:10:22.279Z,20.70
2022-12-04T16:15:22.259Z,21.30
2022-12-04T16:20:22.182Z,20.70
2022-12-04T16:25:22.123Z,25.30
2022-12-04T16:30:22.075Z,19.20
2022-12-04T16:35:22.046Z,23.10
2022-12-04T16:40:21.971Z,19.00
2022-12-04T16:45:21.915Z,22.10
2022-12-04T16:50:21.862Z,22.50
2022-12-04T16:55:21.835Z,21.90
2022-12-04T17:00:21.760Z,20.10
2022-12-04T17:05:21.703Z,19.70
2022-12-04T17:10:24.048Z,20.80
2022-12-04T17:15:21.624Z,20.90
2022-12-04T17:20:28.582Z,19.20
2022-12-04T17:25:21.594Z,18.90
2022-12-04T17:30:21.580Z,21.30
2022-12-04T17:35:21.445Z,28.90
2022-12-04T17:40:21.468Z,23.10
2022-12-04T17:45:21.444Z,17.20
2022-12-04T17:50:21.315Z,20.80
2022-12-04T17:55:21.258Z,20.00
2022-12-04T18:00:21.245Z,20.40
2022-12-04T18:05:21.213Z,19.40
2022-12-04T18:10:21.129Z,22.30
2022-12-04T18:15:21.078Z,20.30
2022-12-04T18:20:21.006Z,19.30
2022-12-04T18:25:20.978Z,17.20
2022-12-04T18:30:20.908Z,20.10
2022-12-04T18:35:20.834Z,19.30
2022-12-04T18:40:20.812Z,20.00
2022-12-04T18:45:20.785Z,18.70
2022-12-04T18:50:20.681Z,18.90
2022-12-04T18:55:20.662Z,18.00
2022-12-04T19:00:20.628Z,17.90
2022-12-04T19:05:20.549Z,18.00
2022-12-04T19:10:20.505Z,20.40
2022-12-04T19:15:20.466Z,17.60
2022-12-04T19:20:20.338Z,21.10
2022-12-04T19:25:20.327Z,18.80
2022-12-04T19:30:20.292Z,21.40
2022-12-04T19:35:20.194Z,18.50
2022-12-04T19:40:20.174Z,28.20
2022-12-04T19:45:20.243Z,19.40
2022-12-04T19:50:19.998Z,21.10
2022-12-04T19:55:20.047Z,22.70
2022-12-04T20:00:19.992Z,21.80
2022-12-04T20:05:19.918Z,21.40
2022-12-04T20:10:19.891Z,21.20
2022-12-04T20:15:19.866Z,23.40
2022-12-04T20:20:19.751Z,22.80
2022-12-04T20:25:19.773Z,20.50
2022-12-04T20:30:19.674Z,20.70
2022-12-04T20:35:19.892Z,19.90
2022-12-04T20:40:19.540Z,22.70
2022-12-04T20:45:19.578Z,21.80
2022-12-04T20:50:19.462Z,21.60
2022-12-04T20:55:19.403Z,23.80
2022-12-04T21:00:19.326Z,29.20
2022-12-04T21:05:19.320Z,27.50
2022-12-04T21:10:19.349Z,32.30
2022-12-04T21:15:19.238Z,30.00
2022-12-04T21:20:19.229Z,32.00
2022-12-04T21:25:19.055Z,35.90
2022-12-04T21:30:18.991Z,36.40
2022-12-04T21:35:19.029Z,35.30
2022-12-04T21:40:18.882Z,36.90
2022-12-04T21:45:18.892Z,35.40
2022-12-04T21:50:18.918Z,32.60
2022-12-04T21:55:18.769Z,34.60
2022-12-04T22:00:18.690Z,36.50
2022-12-04T22:05:18.681Z,35.10
2022-12-04T22:10:18.589Z,31.00
2022-12-04T22:15:18.575Z,32.60
2022-12-04T22:20:18.548Z,29.30
2022-12-04T22:25:18.476Z,33.50
2022-12-04T22:30:18.404Z,32.40
2022-12-04T22:35:18.403Z,29.00
2022-12-04T22:40:18.280Z,26.90
2022-12-04T22:45:18.249Z,29.30
2022-12-04T22:50:18.241Z,29.10
2022-12-04T22:55:18.159Z,27.80
2022-12-04T23:00:18.058Z,30.10
2022-12-04T23:05:18.175Z,32.70
2022-12-04T23:10:17.976Z,31.70
2022-12-04T23:15:17.912Z,29.90
2022-12-04T23:20:17.923Z,32.90
2022-12-04T23:25:17.804Z,31.20
2022-12-04T23:30:21.414Z,27.70
2022-12-04T23:35:18.715Z,28.30
2022-12-04T23:40:17.644Z,28.30
2022-12-04T23:45:17.558Z,29.70
2022-12-04T23:50:17.597Z,26.90
2022-12-04T23:55:17.523Z,29.10
